sensor_id;sensor_type;location;lat;lon;timestamp;P1;durP1;ratioP1;P2;durP2;ratioP2
16254;SDS011;8235;52.198;9.904;2022-12-07T00:01:05;31.00;;;17.27;;
16254;SDS011;8235;52.198;9.904;2022-12-07T00:03:32;36.10;;;18.17;;
16254;SDS011;8235;52.198;9.904;2022-12-07T00:06:00;32.70;;;18.33;;
16254;SDS011;8235;52.198;9.904;2022-12-07T00:08:27;38.27;;;17.93;;
16254;SDS011;8235;52.198;9.904;2022-12-07T00:10:54;32.90;;;16.87;;
16254;SDS011;8235;52.198;9.904;2022-12-07T00:13:21;33.70;;;19.37;;
16254;SDS011;8235;52.198;9.904;2022-12-07T00:15:47;31.03;;;18.63;;
16254;SDS011;8235;52.198;9.904;2022-12-07T00:18:13;33.27;;;18.67;;
16254;SDS011;8235;52.198;9.904;2022-12-07T00:20:40;35.40;;;18.47;;
16254;SDS011;8235;52.198;9.904;2022-12-07T00:23:08;33.20;;;18.07;;
16254;SDS011;8235;52.198;9.904;2022-12-07T00:25:34;31.97;;;18.23;;
16254;SDS011;8235;52.198;9.904;2022-12-07T00:28:01;33.33;;;17.87;;
16254;SDS011;8235;52.198;9.904;2022-12-07T00:30:27;32.50;;;18.73;;
16254;SDS011;8235;52.198;9.904;2022-12-07T00:32:53;33.70;;;19.23;;
16254;SDS011;8235;52.198;9.904;2022-12-07T00:35:20;29.27;;;18.20;;
16254;SDS011;8235;52.198;9.904;2022-12-07T00:37:46;31.57;;;18.40;;
16254;SDS011;8235;52.198;9.904;2022-12-07T00:40:14;31.93;;;18.37;;
16254;SDS011;8235;52.198;9.904;2022-12-07T00:42:41;27.83;;;17.17;;
16254;SDS011;8235;52.198;9.904;2022-12-07T00:45:08;32.50;;;17.63;;
16254;SDS011;8235;52.198;9.904;2022-12-07T00:47:35;29.53;;;17.43;;
16254;SDS011;8235;52.198;9.904;2022-12-07T00:50:01;25.50;;;16.20;;
16254;SDS011;8235;52.198;9.904;2022-12-07T00:52:28;31.33;;;17.13;;
16254;SDS011;8235;52.198;9.904;2022-12-07T00:54:54;23.33;;;15.27;;
16254;SDS011;8235;52.198;9.904;2022-12-07T00:57:22;22.00;;;14.20;;
16254;SDS011;8235;52.198;9.904;2022-12-07T00:59:48;25.60;;;15.30;;
16254;SDS011;8235;52.198;9.904;2022-12-07T01:02:15;23.87;;;14.23;;
16254;SDS011;8235;52.198;9.904;2022-12-07T01:04:41;22.53;;;14.70;;
16254;SDS011;8235;52.198;9.904;2022-12-07T01:07:08;21.53;;;13.33;;
16254;SDS011;8235;52.198;9.904;2022-12-07T01:09:34;22.83;;;13.40;;
16254;SDS011;8235;52.198;9.904;2022-12-07T01:12:01;22.47;;;14.70;;
16254;SDS011;8235;52.198;9.904;2022-12-07T01:14:29;19.97;;;13.77;;
16254;SDS011;8235;52.198;9.904;2022-12-07T01:16:55;18.00;;;13.27;;
16254;SDS011;8235;52.198;9.904;2022-12-07T01:19:22;19.50;;;14.20;;
16254;SDS011;8235;52.198;9.904;2022-12-07T01:21:48;19.53;;;13.83;;
16254;SDS011;8235;52.198;9.904;2022-12-07T01:24:15;21.67;;;13.53;;
16254;SDS011;8235;52.198;9.904;2022-12-07T01:26:41;19.83;;;13.13;;
16254;SDS011;8235;52.198;9.904;2022-12-07T01:29:08;19.43;;;12.80;;
16254;SDS011;8235;52.198;9.904;2022-12-07T01:31:36;18.90;;;13.10;;
16254;SDS011;8235;52.198;9.904;2022-12-07T01:34:03;20.80;;;13.70;;
16254;SDS011;8235;52.198;9.904;2022-12-07T01:36:30;18.50;;;13.30;;
16254;SDS011;8235;52.198;9.904;2022-12-07T01:38:58;19.13;;;14.13;;
16254;SDS011;8235;52.198;9.904;2022-12-07T01:41:27;22.20;;;14.47;;
16254;SDS011;8235;52.198;9.904;2022-12-07T01:44:12;21.90;;;14.53;;
16254;SDS011;8235;52.198;9.904;2022-12-07T01:46:44;21.33;;;13.13;;
16254;SDS011;8235;52.198;9.904;2022-12-07T01:49:12;19.27;;;13.57;;
16254;SDS011;8235;52.198;9.904;2022-12-07T01:51:43;19.10;;;12.93;;
16254;SDS011;8235;52.198;9.904;2022-12-07T01:54:12;18.57;;;12.63;;
16254;SDS011;8235;52.198;9.904;2022-12-07T01:56:41;20.83;;;14.70;;
16254;SDS011;8235;52.198;9.904;2022-12-07T01:59:12;18.43;;;13.87;;
16254;SDS011;8235;52.198;9.904;2022-12-07T02:01:39;19.87;;;13.70;;
16254;SDS011;8235;52.198;9.904;2022-12-07T02:04:07;19.17;;;13.93;;
16254;SDS011;8235;52.198;9.904;2022-12-07T02:06:34;20.20;;;13.87;;
16254;SDS011;8235;52.198;9.904;2022-12-07T02:09:02;17.83;;;13.97;;
16254;SDS011;8235;52.198;9.904;2022-12-07T02:11:29;23.67;;;15.00;;
16254;SDS011;8235;52.198;9.904;2022-12-07T02:13:55;17.80;;;13.33;;
16254;SDS011;8235;52.198;9.904;2022-12-07T02:16:25;19.67;;;14.87;;
16254;SDS011;8235;52.198;9.904;2022-12-07T02:19:03;21.47;;;14.57;;
16254;SDS011;8235;52.198;9.904;2022-12-07T02:21:47;21.67;;;14.63;;
16254;SDS011;8235;52.198;9.904;2022-12-07T02:24:25;19.53;;;14.20;;
16254;SDS011;8235;52.198;9.904;2022-12-07T02:30:02;25.17;;;15.53;;
16254;SDS011;8235;52.198;9.904;2022-12-07T02:32:32;24.67;;;16.47;;
16254;SDS011;8235;52.198;9.904;2022-12-07T02:35:09;22.00;;;15.57;;
16254;SDS011;8235;52.198;9.904;2022-12-07T02:37:41;22.83;;;14.93;;
16254;SDS011;8235;52.198;9.904;2022-12-07T02:40:14;23.23;;;15.37;;
16254;SDS011;8235;52.198;9.904;2022-12-07T02:42:46;22.83;;;16.27;;
16254;SDS011;8235;52.198;9.904;2022-12-07T02:45:19;25.37;;;15.83;;
16254;SDS011;8235;52.198;9.904;2022-12-07T02:47:49;23.23;;;16.00;;
16254;SDS011;8235;52.198;9.904;2022-12-07T02:50:19;24.03;;;15.43;;
16254;SDS011;8235;52.198;9.904;2022-12-07T02:52:47;22.80;;;14.40;;
16254;SDS011;8235;52.198;9.904;2022-12-07T02:55:14;21.10;;;14.50;;
16254;SDS011;8235;52.198;9.904;2022-12-07T02:57:54;22.23;;;15.17;;
16254;SDS011;8235;52.198;9.904;2022-12-07T03:00:51;20.87;;;14.77;;
16254;SDS011;8235;52.198;9.904;2022-12-07T03:03:20;22.07;;;15.47;;
16254;SDS011;8235;52.198;9.904;2022-12-07T03:05:53;23.93;;;15.27;;
16254;SDS011;8235;52.198;9.904;2022-12-07T03:08:30;23.73;;;15.63;;
16254;SDS011;8235;52.198;9.904;2022-12-07T03:11:02;20.10;;;14.63;;
16254;SDS011;8235;52.198;9.904;2022-12-07T03:13:33;22.37;;;15.03;;
16254;SDS011;8235;52.198;9.904;2022-12-07T03:16:09;21.60;;;14.50;;
16254;SDS011;8235;52.198;9.904;2022-12-07T03:18:41;21.03;;;15.03;;
16254;SDS011;8235;52.198;9.904;2022-12-07T03:21:13;25.40;;;15.10;;
16254;SDS011;8235;52.198;9.904;2022-12-07T03:23:43;22.67;;;14.67;;
16254;SDS011;8235;52.198;9.904;2022-12-07T03:26:14;20.77;;;13.50;;
16254;SDS011;8235;52.198;9.904;2022-12-07T03:28:47;22.63;;;13.63;;
16254;SDS011;8235;52.198;9.904;2022-12-07T03:31:17;21.07;;;13.03;;
16254;SDS011;8235;52.198;9.904;2022-12-07T03:33:49;20.40;;;14.13;;
16254;SDS011;8235;52.198;9.904;2022-12-07T03:36:21;23.43;;;13.70;;
16254;SDS011;8235;52.198;9.904;2022-12-07T03:38:53;19.40;;;13.70;;
16254;SDS011;8235;52.198;9.904;2022-12-07T03:41:24;19.73;;;14.27;;
16254;SDS011;8235;52.198;9.904;2022-12-07T03:43:53;18.90;;;12.13;;
16254;SDS011;8235;52.198;9.904;2022-12-07T03:46:24;20.27;;;12.63;;
16254;SDS011;8235;52.198;9.904;2022-12-07T03:48:59;17.13;;;11.73;;
16254;SDS011;8235;52.198;9.904;2022-12-07T03:51:33;16.50;;;11.50;;
16254;SDS011;8235;52.198;9.904;2022-12-07T03:54:07;17.07;;;11.80;;
16254;SDS011;8235;52.198;9.904;2022-12-07T03:56:39;17.83;;;11.90;;
16254;SDS011;8235;52.198;9.904;2022-12-07T03:59:06;15.63;;;10.90;;
16254;SDS011;8235;52.198;9.904;2022-12-07T04:01:35;19.13;;;12.40;;
16254;SDS011;8235;52.198;9.904;2022-12-07T04:04:01;19.47;;;11.97;;
16254;SDS011;8235;52.198;9.904;2022-12-07T04:06:28;16.43;;;11.30;;
16254;SDS011;8235;52.198;9.904;2022-12-07T04:08:54;19.87;;;12.03;;
16254;SDS011;8235;52.198;9.904;2022-12-07T04:11:21;19.13;;;12.47;;
16254;SDS011;8235;52.198;9.904;2022-12-07T04:13:47;18.20;;;12.07;;
16254;SDS011;8235;52.198;9.904;2022-12-07T04:16:31;16.33;;;11.40;;
16254;SDS011;8235;52.198;9.904;2022-12-07T04:18:59;16.90;;;10.97;;
16254;SDS011;8235;52.198;9.904;2022-12-07T04:21:26;21.00;;;11.70;;
16254;SDS011;8235;52.198;9.904;2022-12-07T04:23:52;19.53;;;11.73;;
16254;SDS011;8235;52.198;9.904;2022-12-07T04:26:19;20.33;;;12.47;;
16254;SDS011;8235;52.198;9.904;2022-12-07T04:28:45;17.63;;;11.80;;
16254;SDS011;8235;52.198;9.904;2022-12-07T04:31:12;21.37;;;12.20;;
16254;SDS011;8235;52.198;9.904;2022-12-07T04:33:38;16.60;;;11.23;;
16254;SDS011;8235;52.198;9.904;2022-12-07T04:36:06;20.80;;;11.47;;
16254;SDS011;8235;52.198;9.904;2022-12-07T04:38:33;15.33;;;10.07;;
16254;SDS011;8235;52.198;9.904;2022-12-07T04:41:03;19.57;;;11.00;;
16254;SDS011;8235;52.198;9.904;2022-12-07T04:43:30;15.73;;;10.33;;
16254;SDS011;8235;52.198;9.904;2022-12-07T04:45:57;18.43;;;10.53;;
16254;SDS011;8235;52.198;9.904;2022-12-07T04:48:23;17.63;;;10.57;;
16254;SDS011;8235;52.198;9.904;2022-12-07T04:50:50;16.53;;;10.17;;
16254;SDS011;8235;52.198;9.904;2022-12-07T04:53:18;20.13;;;10.93;;
16254;SDS011;8235;52.198;9.904;2022-12-07T04:55:45;16.23;;;11.13;;
16254;SDS011;8235;52.198;9.904;2022-12-07T04:58:12;17.97;;;10.30;;
16254;SDS011;8235;52.198;9.904;2022-12-07T05:00:39;16.70;;;10.90;;
16254;SDS011;8235;52.198;9.904;2022-12-07T05:03:06;17.87;;;11.03;;
16254;SDS011;8235;52.198;9.904;2022-12-07T05:05:33;15.93;;;10.63;;
16254;SDS011;8235;52.198;9.904;2022-12-07T05:07:59;19.73;;;11.37;;
16254;SDS011;8235;52.198;9.904;2022-12-07T05:10:27;15.63;;;11.27;;
16254;SDS011;8235;52.198;9.904;2022-12-07T05:12:53;18.77;;;10.27;;
16254;SDS011;8235;52.198;9.904;2022-12-07T05:15:20;19.57;;;10.37;;
16254;SDS011;8235;52.198;9.904;2022-12-07T05:17:46;17.30;;;9.83;;
16254;SDS011;8235;52.198;9.904;2022-12-07T05:20:13;17.27;;;10.13;;
16254;SDS011;8235;52.198;9.904;2022-12-07T05:22:39;19.53;;;9.80;;
16254;SDS011;8235;52.198;9.904;2022-12-07T05:25:06;16.47;;;10.73;;
16254;SDS011;8235;52.198;9.904;2022-12-07T05:27:34;17.10;;;9.67;;
16254;SDS011;8235;52.198;9.904;2022-12-07T05:30:01;16.27;;;9.13;;
16254;SDS011;8235;52.198;9.904;2022-12-07T05:32:28;14.10;;;7.90;;
16254;SDS011;8235;52.198;9.904;2022-12-07T05:34:54;13.57;;;7.97;;
16254;SDS011;8235;52.198;9.904;2022-12-07T05:37:20;15.77;;;8.17;;
16254;SDS011;8235;52.198;9.904;2022-12-07T05:39:47;13.67;;;8.90;;
16254;SDS011;8235;52.198;9.904;2022-12-07T05:42:13;21.10;;;7.90;;
16254;SDS011;8235;52.198;9.904;2022-12-07T05:44:43;14.53;;;8.30;;
16254;SDS011;8235;52.198;9.904;2022-12-07T05:47:11;16.10;;;7.83;;
16254;SDS011;8235;52.198;9.904;2022-12-07T05:49:38;13.83;;;7.93;;
16254;SDS011;8235;52.198;9.904;2022-12-07T05:52:05;15.53;;;8.40;;
16254;SDS011;8235;52.198;9.904;2022-12-07T05:54:31;14.33;;;8.40;;
16254;SDS011;8235;52.198;9.904;2022-12-07T05:56:58;13.70;;;8.20;;
16254;SDS011;8235;52.198;9.904;2022-12-07T05:59:25;12.93;;;8.00;;
16254;SDS011;8235;52.198;9.904;2022-12-07T06:01:54;11.17;;;6.73;;
16254;SDS011;8235;52.198;9.904;2022-12-07T06:04:22;10.47;;;7.77;;
16254;SDS011;8235;52.198;9.904;2022-12-07T06:06:50;13.07;;;7.07;;
16254;SDS011;8235;52.198;9.904;2022-12-07T06:09:17;11.97;;;7.30;;
16254;SDS011;8235;52.198;9.904;2022-12-07T06:11:44;11.97;;;7.13;;
16254;SDS011;8235;52.198;9.904;2022-12-07T06:14:28;9.03;;;6.93;;
16254;SDS011;8235;52.198;9.904;2022-12-07T06:16:56;8.63;;;5.97;;
16254;SDS011;8235;52.198;9.904;2022-12-07T06:19:22;15.80;;;6.73;;
16254;SDS011;8235;52.198;9.904;2022-12-07T06:21:49;8.93;;;6.27;;
16254;SDS011;8235;52.198;9.904;2022-12-07T06:24:16;10.03;;;6.40;;
16254;SDS011;8235;52.198;9.904;2022-12-07T06:26:43;12.67;;;6.77;;
16254;SDS011;8235;52.198;9.904;2022-12-07T06:29:10;10.53;;;5.37;;
16254;SDS011;8235;52.198;9.904;2022-12-07T06:31:37;10.03;;;6.03;;
16254;SDS011;8235;52.198;9.904;2022-12-07T06:34:06;8.03;;;5.37;;
16254;SDS011;8235;52.198;9.904;2022-12-07T06:36:35;11.17;;;6.30;;
16254;SDS011;8235;52.198;9.904;2022-12-07T06:39:02;10.70;;;5.47;;
16254;SDS011;8235;52.198;9.904;2022-12-07T06:41:29;10.07;;;6.07;;
16254;SDS011;8235;52.198;9.904;2022-12-07T06:43:55;9.47;;;5.37;;
16254;SDS011;8235;52.198;9.904;2022-12-07T06:46:22;6.27;;;5.40;;
16254;SDS011;8235;52.198;9.904;2022-12-07T06:48:49;7.10;;;5.67;;
16254;SDS011;8235;52.198;9.904;2022-12-07T06:51:17;9.10;;;6.67;;
16254;SDS011;8235;52.198;9.904;2022-12-07T06:53:44;11.50;;;6.60;;
16254;SDS011;8235;52.198;9.904;2022-12-07T06:56:10;10.50;;;6.80;;
16254;SDS011;8235;52.198;9.904;2022-12-07T06:58:37;10.53;;;7.37;;
16254;SDS011;8235;52.198;9.904;2022-12-07T07:01:07;12.47;;;6.47;;
16254;SDS011;8235;52.198;9.904;2022-12-07T07:03:35;8.70;;;6.60;;
16254;SDS011;8235;52.198;9.904;2022-12-07T07:06:01;10.17;;;6.67;;
16254;SDS011;8235;52.198;9.904;2022-12-07T07:08:29;10.67;;;6.07;;
16254;SDS011;8235;52.198;9.904;2022-12-07T07:10:56;10.83;;;6.43;;
16254;SDS011;8235;52.198;9.904;2022-12-07T07:13:22;9.17;;;6.37;;
16254;SDS011;8235;52.198;9.904;2022-12-07T07:15:49;11.47;;;6.00;;
16254;SDS011;8235;52.198;9.904;2022-12-07T07:18:15;9.37;;;5.40;;
16254;SDS011;8235;52.198;9.904;2022-12-07T07:20:42;10.70;;;5.33;;
16254;SDS011;8235;52.198;9.904;2022-12-07T07:23:09;5.57;;;4.80;;
16254;SDS011;8235;52.198;9.904;2022-12-07T07:25:37;11.67;;;6.07;;
16254;SDS011;8235;52.198;9.904;2022-12-07T07:28:03;10.97;;;5.17;;
16254;SDS011;8235;52.198;9.904;2022-12-07T07:30:30;9.23;;;5.60;;
16254;SDS011;8235;52.198;9.904;2022-12-07T07:32:57;12.23;;;5.00;;
16254;SDS011;8235;52.198;9.904;2022-12-07T07:35:24;10.03;;;4.80;;
16254;SDS011;8235;52.198;9.904;2022-12-07T07:37:51;7.33;;;5.10;;
16254;SDS011;8235;52.198;9.904;2022-12-07T07:40:18;8.60;;;4.73;;
16254;SDS011;8235;52.198;9.904;2022-12-07T07:42:47;6.20;;;4.83;;
16254;SDS011;8235;52.198;9.904;2022-12-07T07:45:14;7.57;;;5.17;;
16254;SDS011;8235;52.198;9.904;2022-12-07T07:47:41;7.07;;;4.07;;
16254;SDS011;8235;52.198;9.904;2022-12-07T07:50:08;6.10;;;3.67;;
16254;SDS011;8235;52.198;9.904;2022-12-07T07:52:35;5.20;;;3.83;;
16254;SDS011;8235;52.198;9.904;2022-12-07T07:55:01;4.90;;;3.80;;
16254;SDS011;8235;52.198;9.904;2022-12-07T07:57:28;4.17;;;3.77;;
16254;SDS011;8235;52.198;9.904;2022-12-07T07:59:56;8.27;;;4.70;;
16254;SDS011;8235;52.198;9.904;2022-12-07T08:02:23;9.27;;;4.90;;
16254;SDS011;8235;52.198;9.904;2022-12-07T08:04:49;9.87;;;4.90;;
16254;SDS011;8235;52.198;9.904;2022-12-07T08:07:16;5.90;;;3.80;;
16254;SDS011;8235;52.198;9.904;2022-12-07T08:09:42;6.00;;;3.10;;
16254;SDS011;8235;52.198;9.904;2022-12-07T08:12:09;6.87;;;4.03;;
16254;SDS011;8235;52.198;9.904;2022-12-07T08:14:35;9.67;;;3.20;;
16254;SDS011;8235;52.198;9.904;2022-12-07T08:17:03;6.80;;;4.13;;
16254;SDS011;8235;52.198;9.904;2022-12-07T08:19:29;8.27;;;4.17;;
16254;SDS011;8235;52.198;9.904;2022-12-07T08:21:56;5.43;;;4.50;;
16254;SDS011;8235;52.198;9.904;2022-12-07T08:24:23;8.30;;;4.63;;
16254;SDS011;8235;52.198;9.904;2022-12-07T08:26:50;7.37;;;5.80;;
16254;SDS011;8235;52.198;9.904;2022-12-07T08:29:17;8.23;;;5.20;;
16254;SDS011;8235;52.198;9.904;2022-12-07T08:31:43;6.77;;;4.23;;
16254;SDS011;8235;52.198;9.904;2022-12-07T08:34:12;8.97;;;4.30;;
16254;SDS011;8235;52.198;9.904;2022-12-07T08:36:39;6.43;;;3.53;;
16254;SDS011;8235;52.198;9.904;2022-12-07T08:39:05;3.70;;;2.20;;
16254;SDS011;8235;52.198;9.904;2022-12-07T08:41:32;5.53;;;2.60;;
16254;SDS011;8235;52.198;9.904;2022-12-07T08:43:58;5.83;;;2.37;;
16254;SDS011;8235;52.198;9.904;2022-12-07T08:46:26;4.70;;;1.90;;
16254;SDS011;8235;52.198;9.904;2022-12-07T08:48:58;6.93;;;2.20;;
16254;SDS011;8235;52.198;9.904;2022-12-07T08:51:30;6.87;;;2.37;;
16254;SDS011;8235;52.198;9.904;2022-12-07T08:53:57;5.10;;;2.13;;
16254;SDS011;8235;52.198;9.904;2022-12-07T08:56:27;6.43;;;2.43;;
16254;SDS011;8235;52.198;9.904;2022-12-07T08:58:53;6.97;;;3.47;;
16254;SDS011;8235;52.198;9.904;2022-12-07T09:01:20;6.53;;;3.30;;
16254;SDS011;8235;52.198;9.904;2022-12-07T09:03:47;3.77;;;2.47;;
16254;SDS011;8235;52.198;9.904;2022-12-07T09:06:13;6.93;;;2.63;;
16254;SDS011;8235;52.198;9.904;2022-12-07T09:08:41;4.77;;;3.00;;
16254;SDS011;8235;52.198;9.904;2022-12-07T09:11:12;7.60;;;2.97;;
16254;SDS011;8235;52.198;9.904;2022-12-07T09:13:38;6.37;;;2.30;;
16254;SDS011;8235;52.198;9.904;2022-12-07T09:16:05;7.97;;;2.73;;
16254;SDS011;8235;52.198;9.904;2022-12-07T09:18:31;6.90;;;2.97;;
16254;SDS011;8235;52.198;9.904;2022-12-07T09:20:58;4.30;;;2.90;;
16254;SDS011;8235;52.198;9.904;2022-12-07T09:23:24;6.27;;;2.90;;
16254;SDS011;8235;52.198;9.904;2022-12-07T09:25:52;6.57;;;3.47;;
16254;SDS011;8235;52.198;9.904;2022-12-07T09:28:19;4.53;;;2.47;;
16254;SDS011;8235;52.198;9.904;2022-12-07T09:30:46;5.37;;;2.80;;
16254;SDS011;8235;52.198;9.904;2022-12-07T09:33:13;4.93;;;2.53;;
16254;SDS011;8235;52.198;9.904;2022-12-07T09:35:43;4.17;;;2.53;;
16254;SDS011;8235;52.198;9.904;2022-12-07T09:38:10;4.33;;;2.57;;
16254;SDS011;8235;52.198;9.904;2022-12-07T09:40:37;5.40;;;1.60;;
16254;SDS011;8235;52.198;9.904;2022-12-07T09:43:05;6.57;;;2.03;;
16254;SDS011;8235;52.198;9.904;2022-12-07T09:45:38;3.27;;;1.60;;
16254;SDS011;8235;52.198;9.904;2022-12-07T09:48:05;4.00;;;1.40;;
16254;SDS011;8235;52.198;9.904;2022-12-07T09:50:38;4.60;;;2.40;;
16254;SDS011;8235;52.198;9.904;2022-12-07T09:53:08;7.27;;;2.87;;
16254;SDS011;8235;52.198;9.904;2022-12-07T09:55:40;2.17;;;1.80;;
16254;SDS011;8235;52.198;9.904;2022-12-07T09:58:10;2.97;;;1.50;;
16254;SDS011;8235;52.198;9.904;2022-12-07T10:00:43;4.00;;;2.07;;
16254;SDS011;8235;52.198;9.904;2022-12-07T10:03:10;2.47;;;1.53;;
16254;SDS011;8235;52.198;9.904;2022-12-07T10:05:38;4.00;;;1.77;;
16254;SDS011;8235;52.198;9.904;2022-12-07T10:08:08;3.73;;;1.73;;
16254;SDS011;8235;52.198;9.904;2022-12-07T10:10:37;5.33;;;1.93;;
16254;SDS011;8235;52.198;9.904;2022-12-07T10:13:06;3.90;;;1.63;;
16254;SDS011;8235;52.198;9.904;2022-12-07T10:15:42;2.10;;;1.60;;
16254;SDS011;8235;52.198;9.904;2022-12-07T10:18:18;2.60;;;1.63;;
16254;SDS011;8235;52.198;9.904;2022-12-07T10:21:00;3.37;;;1.53;;
16254;SDS011;8235;52.198;9.904;2022-12-07T10:23:32;4.33;;;2.17;;
16254;SDS011;8235;52.198;9.904;2022-12-07T10:25:59;3.70;;;2.07;;
16254;SDS011;8235;52.198;9.904;2022-12-07T10:28:44;3.30;;;1.27;;
16254;SDS011;8235;52.198;9.904;2022-12-07T10:31:16;3.43;;;1.07;;
16254;SDS011;8235;52.198;9.904;2022-12-07T10:33:48;1.87;;;1.63;;
16254;SDS011;8235;52.198;9.904;2022-12-07T10:36:17;4.07;;;1.10;;
16254;SDS011;8235;52.198;9.904;2022-12-07T10:38:47;2.63;;;0.67;;
16254;SDS011;8235;52.198;9.904;2022-12-07T10:41:14;2.67;;;1.37;;
16254;SDS011;8235;52.198;9.904;2022-12-07T10:43:48;1.63;;;1.07;;
16254;SDS011;8235;52.198;9.904;2022-12-07T10:49:44;3.93;;;1.10;;
16254;SDS011;8235;52.198;9.904;2022-12-07T10:52:30;4.07;;;1.57;;
16254;SDS011;8235;52.198;9.904;2022-12-07T10:55:13;2.20;;;1.13;;
16254;SDS011;8235;52.198;9.904;2022-12-07T10:57:47;3.03;;;1.43;;
16254;SDS011;8235;52.198;9.904;2022-12-07T11:00:28;2.90;;;1.80;;
16254;SDS011;8235;52.198;9.904;2022-12-07T11:03:08;2.23;;;1.50;;
16254;SDS011;8235;52.198;9.904;2022-12-07T11:06:06;4.13;;;1.30;;
16254;SDS011;8235;52.198;9.904;2022-12-07T11:08:44;4.17;;;1.60;;
16254;SDS011;8235;52.198;9.904;2022-12-07T11:11:23;4.23;;;1.90;;
16254;SDS011;8235;52.198;9.904;2022-12-07T11:13:59;2.67;;;1.53;;
16254;SDS011;8235;52.198;9.904;2022-12-07T11:16:34;5.07;;;1.93;;
16254;SDS011;8235;52.198;9.904;2022-12-07T11:19:20;2.10;;;1.90;;
16254;SDS011;8235;52.198;9.904;2022-12-07T11:21:57;7.27;;;3.53;;
16254;SDS011;8235;52.198;9.904;2022-12-07T11:24:25;5.60;;;2.73;;
16254;SDS011;8235;52.198;9.904;2022-12-07T11:27:02;5.63;;;2.10;;
16254;SDS011;8235;52.198;9.904;2022-12-07T11:29:46;4.13;;;2.40;;
16254;SDS011;8235;52.198;9.904;2022-12-07T11:32:19;5.77;;;2.10;;
16254;SDS011;8235;52.198;9.904;2022-12-07T11:34:57;3.40;;;2.53;;
16254;SDS011;8235;52.198;9.904;2022-12-07T11:37:32;4.53;;;1.67;;
16254;SDS011;8235;52.198;9.904;2022-12-07T11:40:02;3.33;;;1.60;;
16254;SDS011;8235;52.198;9.904;2022-12-07T11:42:33;4.77;;;1.90;;
16254;SDS011;8235;52.198;9.904;2022-12-07T11:45:10;4.60;;;2.10;;
16254;SDS011;8235;52.198;9.904;2022-12-07T11:47:45;3.50;;;2.30;;
16254;SDS011;8235;52.198;9.904;2022-12-07T11:50:27;15.70;;;3.23;;
16254;SDS011;8235;52.198;9.904;2022-12-07T11:53:00;6.17;;;3.23;;
16254;SDS011;8235;52.198;9.904;2022-12-07T11:55:33;7.47;;;3.07;;
16254;SDS011;8235;52.198;9.904;2022-12-07T11:58:11;4.53;;;3.20;;
16254;SDS011;8235;52.198;9.904;2022-12-07T12:00:47;6.70;;;2.90;;
16254;SDS011;8235;52.198;9.904;2022-12-07T12:03:20;7.37;;;3.40;;
16254;SDS011;8235;52.198;9.904;2022-12-07T12:05:56;5.70;;;3.43;;
16254;SDS011;8235;52.198;9.904;2022-12-07T12:08:23;4.93;;;3.13;;
16254;SDS011;8235;52.198;9.904;2022-12-07T12:10:58;5.70;;;3.60;;
16254;SDS011;8235;52.198;9.904;2022-12-07T12:13:43;3.70;;;2.87;;
16254;SDS011;8235;52.198;9.904;2022-12-07T12:16:27;6.80;;;3.57;;
16254;SDS011;8235;52.198;9.904;2022-12-07T12:19:14;7.83;;;2.80;;
16254;SDS011;8235;52.198;9.904;2022-12-07T12:21:53;6.00;;;2.33;;
16254;SDS011;8235;52.198;9.904;2022-12-07T12:24:23;5.70;;;1.30;;
16254;SDS011;8235;52.198;9.904;2022-12-07T12:26:53;4.00;;;1.63;;
16254;SDS011;8235;52.198;9.904;2022-12-07T12:29:26;4.30;;;1.20;;
16254;SDS011;8235;52.198;9.904;2022-12-07T12:32:04;2.17;;;1.20;;
16254;SDS011;8235;52.198;9.904;2022-12-07T12:34:40;4.43;;;1.27;;
16254;SDS011;8235;52.198;9.904;2022-12-07T12:37:40;4.03;;;1.87;;
16254;SDS011;8235;52.198;9.904;2022-12-07T12:51:58;4.93;;;1.50;;
16254;SDS011;8235;52.198;9.904;2022-12-07T12:54:30;6.70;;;2.37;;
16254;SDS011;8235;52.198;9.904;2022-12-07T12:56:59;6.07;;;2.50;;
16254;SDS011;8235;52.198;9.904;2022-12-07T12:59:32;5.03;;;3.13;;
16254;SDS011;8235;52.198;9.904;2022-12-07T13:02:15;9.33;;;4.47;;
16254;SDS011;8235;52.198;9.904;2022-12-07T13:04:50;6.93;;;3.00;;
16254;SDS011;8235;52.198;9.904;2022-12-07T13:10:33;13.47;;;6.33;;
16254;SDS011;8235;52.198;9.904;2022-12-07T13:13:04;7.23;;;3.20;;
16254;SDS011;8235;52.198;9.904;2022-12-07T13:15:52;7.53;;;2.83;;
16254;SDS011;8235;52.198;9.904;2022-12-07T13:18:23;8.67;;;2.33;;
16254;SDS011;8235;52.198;9.904;2022-12-07T13:20:52;13.30;;;7.00;;
16254;SDS011;8235;52.198;9.904;2022-12-07T13:23:27;7.53;;;3.80;;
16254;SDS011;8235;52.198;9.904;2022-12-07T13:25:59;7.43;;;3.33;;
16254;SDS011;8235;52.198;9.904;2022-12-07T13:28:32;12.13;;;4.87;;
16254;SDS011;8235;52.198;9.904;2022-12-07T13:34:28;8.53;;;4.97;;
16254;SDS011;8235;52.198;9.904;2022-12-07T13:36:56;6.63;;;2.93;;
16254;SDS011;8235;52.198;9.904;2022-12-07T13:39:26;7.37;;;4.53;;
16254;SDS011;8235;52.198;9.904;2022-12-07T13:41:54;5.63;;;2.13;;
16254;SDS011;8235;52.198;9.904;2022-12-07T13:44:22;7.43;;;2.90;;
16254;SDS011;8235;52.198;9.904;2022-12-07T13:46:51;4.67;;;2.30;;
16254;SDS011;8235;52.198;9.904;2022-12-07T13:49:24;10.60;;;2.73;;
16254;SDS011;8235;52.198;9.904;2022-12-07T13:51:52;8.50;;;2.07;;
16254;SDS011;8235;52.198;9.904;2022-12-07T13:54:19;5.77;;;2.40;;
16254;SDS011;8235;52.198;9.904;2022-12-07T13:56:47;5.37;;;1.47;;
16254;SDS011;8235;52.198;9.904;2022-12-07T13:59:17;3.30;;;1.30;;
16254;SDS011;8235;52.198;9.904;2022-12-07T14:01:45;4.63;;;1.53;;
16254;SDS011;8235;52.198;9.904;2022-12-07T14:04:18;3.00;;;1.53;;
16254;SDS011;8235;52.198;9.904;2022-12-07T14:06:50;4.77;;;1.90;;
16254;SDS011;8235;52.198;9.904;2022-12-07T14:09:18;4.30;;;2.07;;
16254;SDS011;8235;52.198;9.904;2022-12-07T14:11:47;4.20;;;1.70;;
16254;SDS011;8235;52.198;9.904;2022-12-07T14:14:16;4.83;;;2.53;;
16254;SDS011;8235;52.198;9.904;2022-12-07T14:16:55;5.93;;;2.73;;
16254;SDS011;8235;52.198;9.904;2022-12-07T14:19:43;9.83;;;4.00;;
16254;SDS011;8235;52.198;9.904;2022-12-07T14:22:19;8.27;;;3.60;;
16254;SDS011;8235;52.198;9.904;2022-12-07T14:24:51;10.87;;;6.50;;
16254;SDS011;8235;52.198;9.904;2022-12-07T14:27:24;8.20;;;3.53;;
16254;SDS011;8235;52.198;9.904;2022-12-07T14:29:58;8.07;;;4.50;;
16254;SDS011;8235;52.198;9.904;2022-12-07T14:32:26;14.23;;;8.70;;
16254;SDS011;8235;52.198;9.904;2022-12-07T14:35:00;11.90;;;9.40;;
16254;SDS011;8235;52.198;9.904;2022-12-07T14:37:30;7.73;;;5.00;;
16254;SDS011;8235;52.198;9.904;2022-12-07T14:39:57;7.40;;;5.80;;
16254;SDS011;8235;52.198;9.904;2022-12-07T14:42:24;10.93;;;5.33;;
16254;SDS011;8235;52.198;9.904;2022-12-07T14:44:53;8.53;;;4.63;;
16254;SDS011;8235;52.198;9.904;2022-12-07T14:47:20;7.67;;;3.40;;
16254;SDS011;8235;52.198;9.904;2022-12-07T14:49:46;10.97;;;4.20;;
16254;SDS011;8235;52.198;9.904;2022-12-07T14:52:15;5.67;;;2.20;;
16254;SDS011;8235;52.198;9.904;2022-12-07T14:54:44;6.83;;;4.33;;
16254;SDS011;8235;52.198;9.904;2022-12-07T14:57:11;8.33;;;3.23;;
16254;SDS011;8235;52.198;9.904;2022-12-07T14:59:38;9.47;;;4.60;;
16254;SDS011;8235;52.198;9.904;2022-12-07T15:02:05;5.27;;;3.33;;
16254;SDS011;8235;52.198;9.904;2022-12-07T15:04:32;4.30;;;2.10;;
16254;SDS011;8235;52.198;9.904;2022-12-07T15:06:59;10.27;;;3.20;;
16254;SDS011;8235;52.198;9.904;2022-12-07T15:09:27;6.57;;;3.13;;
16254;SDS011;8235;52.198;9.904;2022-12-07T15:11:54;5.07;;;2.70;;
16254;SDS011;8235;52.198;9.904;2022-12-07T15:14:21;7.87;;;2.90;;
16254;SDS011;8235;52.198;9.904;2022-12-07T15:16:47;6.00;;;2.70;;
16254;SDS011;8235;52.198;9.904;2022-12-07T15:19:14;3.83;;;2.20;;
16254;SDS011;8235;52.198;9.904;2022-12-07T15:21:42;4.83;;;2.33;;
16254;SDS011;8235;52.198;9.904;2022-12-07T15:24:09;5.63;;;2.30;;
16254;SDS011;8235;52.198;9.904;2022-12-07T15:26:37;7.30;;;2.80;;
16254;SDS011;8235;52.198;9.904;2022-12-07T15:29:07;4.30;;;2.37;;
16254;SDS011;8235;52.198;9.904;2022-12-07T15:31:34;4.57;;;1.80;;